Happy Valentine's Day! 

Flight Track Log - Related Links

Times and Time Zones

All times are in EDT time to prevent confusion due to time zone crossing. See the SWA414 flight status page for this flight to view local times or setup timezone preferences in your user account.


Time Position Orientation Groundspeed Altitude Reporting Facility
EDT Latitude Longitude Course Direction KTS MPH feet Rate Location/Type
Tue 09:19:26 PM 37.7511 -122.3350 291° West 226 260 4,400  Level Oakland Center
Tue 09:20:27 PM 37.7125 -122.4067 236° Southwest 277 319 7,400 2,951 Climbing Oakland Center
Tue 09:21:28 PM 37.6433 -122.4664 214° Southwest 297 342 10,400 2,410 Climbing Oakland Center
Tue 09:22:29 PM 37.5522 -122.5072 200° South 356 410 12,300 2,000 Climbing Oakland Center
Tue 09:23:31 PM 37.4431 -122.5178 184° South 389 448 14,500 2,341 Climbing Oakland Center
Tue 09:24:32 PM 37.3267 -122.5303 185° South 413 475 17,100 2,361 Climbing Oakland Center
Tue 09:25:33 PM 37.2083 -122.5439 185° South 428 493 19,300 1,967 Climbing Oakland Center
Tue 09:26:34 PM 37.0869 -122.5569 185° South 437 503 21,100 1,869 Climbing Oakland Center
Tue 09:27:35 PM 36.9661 -122.5308 170° South 459 528 23,100 1,756 Climbing Oakland Center
Tue 09:28:37 PM 36.8669 -122.4306 141° Southeast 453 521 24,700 1,415 Climbing Oakland Center
Tue 09:29:38 PM 36.7625 -122.3258 141° Southeast 474 545 26,000 1,598 Climbing Oakland Center
Tue 09:31:26 PM 36.5614 -122.1364 143° Southeast 485 558 29,200 1,659 Climbing Los Angeles Center
Tue 09:32:28 PM 36.4572 -122.0358 142° Southeast 478 550 30,700 1,500 Climbing Los Angeles Center
Tue 09:33:30 PM 36.3322 -121.9131 142° Southeast 478 550 32,300 1,412 Climbing Los Angeles Center
Tue 09:34:44 PM 36.2136 -121.7869 139° Southeast 474 545 33,900 1,244 Climbing Oakland Center
Tue 09:35:45 PM 36.1106 -121.6892 143° Southeast 468 539 35,100 1,131 Climbing Oakland Center
Tue 09:36:46 PM 36.0081 -121.5906 142° Southeast 468 539 36,200 934 Climbing Oakland Center
Tue 09:37:47 PM 35.9133 -121.4839 138° Southeast 461 531 37,000 393 Climbing Oakland Center
Tue 09:38:48 PM 35.8356 -121.3561 127° Southeast 466 536 37,000  Level Oakland Center
Tue 09:39:49 PM 35.7572 -121.2278 127° Southeast 467 537 37,000  Level Oakland Center
Tue 09:40:51 PM 35.6769 -121.1022 128° Southeast 468 539 37,000  Level Oakland Center
Tue 09:41:52 PM 35.5981 -120.9756 127° Southeast 469 540 37,000  Level Oakland Center
Tue 09:42:53 PM 35.5017 -120.8258 128° Southeast 466 536 37,000  Level Oakland Center
Tue 09:43:54 PM 35.4225 -120.6997 128° Southeast 469 540 37,000  Level Oakland Center
Tue 09:44:55 PM 35.3428 -120.5758 128° Southeast 467 537 37,000  Level Oakland Center
Tue 09:45:56 PM 35.2661 -120.4528 127° Southeast 472 543 37,000  Level Oakland Center
Tue 09:46:57 PM 35.1869 -120.3286 128° Southeast 470 541 37,000  Level Oakland Center
Tue 09:47:58 PM 35.1092 -120.2075 128° Southeast 461 531 37,000  Level Oakland Center
Tue 09:49:00 PM 35.0300 -120.0850 128° Southeast 461 531 37,000  Level Oakland Center
Tue 09:50:01 PM 34.9336 -119.9364 128° Southeast 467 537 37,000  Level Oakland Center
Tue 09:51:02 PM 34.8533 -119.8136 129° Southeast 465 535 37,000  Level Oakland Center
Tue 09:52:03 PM 34.7731 -119.6906 128° Southeast 466 536 37,000  Level Oakland Center
Tue 09:53:04 PM 34.6931 -119.5661 128° Southeast 467 537 37,000  Level Oakland Center
Tue 09:54:05 PM 34.6111 -119.4428 129° Southeast 470 541 37,000  Level Oakland Center
Tue 09:55:15 PM 34.5103 -119.2922 129° Southeast 468 539 37,000  Level Los Angeles Center
Tue 09:56:17 PM 34.4283 -119.1692 129° Southeast 470 541 37,000  Level Los Angeles Center
Tue 09:57:18 PM 34.3450 -119.0461 129° Southeast 472 543 37,000  Level Los Angeles Center
Tue 09:58:20 PM 34.2625 -118.9219 129° Southeast 473 544 37,000 -194 Level Los Angeles Center
Tue 09:59:22 PM 34.1797 -118.7981 129° Southeast 475 547 36,600 -634 Descending Los Angeles Center
Tue 10:00:23 PM 34.0961 -118.6739 129° Southeast 476 548 35,700 -927 Descending Los Angeles Center
Tue 10:01:25 PM 34.0128 -118.5500 129° Southeast 476 548 34,700 -1,016 Descending Los Angeles Center
Tue 10:02:27 PM 33.9203 -118.4122 129° Southeast 476 548 33,600 -976 Descending Los Angeles Center
Tue 10:03:28 PM 33.8308 -118.2956 133° Southeast 474 545 32,700 -878 Descending Los Angeles Center
Tue 10:04:30 PM 33.7411 -118.1858 135° Southeast 477 549 31,800 -1,707 Descending Los Angeles Center
Tue 10:05:31 PM 33.6314 -118.0453 133° Southeast 477 549 29,200 -2,537 Descending Los Angeles Center
Tue 10:06:33 PM 33.5453 -117.9364 133° Southeast 459 528 26,600 -2,419 Descending Los Angeles Center
Tue 10:07:35 PM 33.4628 -117.8322 133° Southeast 440 506 24,200 -2,545 Descending Los Angeles Center
Tue 10:08:12 PM 33.4000 -117.7667 139° Southeast 418 481 22,400 -2,478 Descending Southern California TRACON
Tue 10:09:07 PM 33.3333 -117.6833 134° Southeast 406 467 20,400 -2,093 Descending Southern California TRACON
Tue 10:09:38 PM 33.3056 -117.6336 124° Southeast 411 473 19,400 -2,194 Descending Los Angeles Center
Tue 10:10:40 PM 33.2281 -117.5431 136° Southeast 397 457 17,000 -2,293 Descending Los Angeles Center
Tue 10:11:41 PM 33.1419 -117.4706 145° Southeast 382 440 14,700 -2,244 Descending Los Angeles Center
Tue 10:12:43 PM 33.0561 -117.4039 147° Southeast 373 429 12,400 -2,283 Descending Los Angeles Center
Tue 10:13:13 PM 33.0000 -117.3500 141° Southeast 356 410 11,200 -1,533 Descending Southern California TRACON
Tue 10:14:13 PM 32.9167 -117.3000 153° Southeast 320 368 10,100 -1,211 Descending Southern California TRACON
Tue 10:15:07 PM 32.8500 -117.2500 148° Southeast 307 353 8,900 -1,200 Descending Southern California TRACON
Tue 10:15:48 PM 32.8172 -117.2122 136° Southeast 314 361 8,200 -1,529 Descending Los Angeles Center
Tue 10:16:49 PM 32.7944 -117.1300 108° East 283 326 6,300 -1,610 Descending Los Angeles Center
Tue 10:17:51 PM 32.7767 -117.0442 104° East 271 312 4,900 -677 Descending Los Angeles Center
Tue 10:18:53 PM 32.7575 -116.9758 108° East 242 278 4,900 -293 Level Los Angeles Center
Tue 10:19:54 PM 32.7081 -116.9836 188° South 217 250 4,300 -927 Descending Los Angeles Center
Tue 10:20:56 PM 32.6931 -117.0464 254° West 182 209 3,000 -1,073 Descending Los Angeles Center
Tue 10:21:57 PM 32.7100 -117.0911 294° West 162 186 2,100 -976 Descending Los Angeles Center
Tue 10:22:59 PM 32.7214 -117.1361 287° West 150 173 1,000 -919 Descending Los Angeles Center
Tue 10:24:01 PM 32.7336 -117.1839 287° West 145 167 200 -774 Descending Los Angeles Center
Tue 10:26:00 PM 32.7336 -117.1897 282° West  Level Estimated

Login

Don't have an account? Register now (free) for customized features, flight alerts, and more!